sensor_id;sensor_type;location;lat;lon;timestamp;pressure;altitude;pressure_sealevel;temperature;humidity
61086;BME280;46967;48.876;2.136;2023-06-26T00:01:14;101574.50;;;46.48;14.42
61086;BME280;46967;48.876;2.136;2023-06-26T00:03:39;101576.47;;;46.58;14.43
61086;BME280;46967;48.876;2.136;2023-06-26T00:06:05;101572.19;;;47.29;13.65
61086;BME280;46967;48.876;2.136;2023-06-26T00:08:30;101573.50;;;48.64;12.42
61086;BME280;46967;48.876;2.136;2023-06-26T00:10:56;101569.69;;;47.74;13.46
61086;BME280;46967;48.876;2.136;2023-06-26T00:13:22;101578.31;;;45.89;14.84
61086;BME280;46967;48.876;2.136;2023-06-26T00:15:48;101584.00;;;46.98;13.86
61086;BME280;46967;48.876;2.136;2023-06-26T00:18:13;101576.09;;;48.34;12.67
61086;BME280;46967;48.876;2.136;2023-06-26T00:20:38;101577.28;;;48.78;12.39
61086;BME280;46967;48.876;2.136;2023-06-26T00:23:03;101590.06;;;47.42;13.63
61086;BME280;46967;48.876;2.136;2023-06-26T00:25:33;101586.69;;;47.91;13.33
61086;BME280;46967;48.876;2.136;2023-06-26T00:27:58;101585.63;;;49.02;12.50
61086;BME280;46967;48.876;2.136;2023-06-26T00:30:23;101584.41;;;49.24;12.00
61086;BME280;46967;48.876;2.136;2023-06-26T00:32:49;101591.47;;;49.30;12.36
61086;BME280;46967;48.876;2.136;2023-06-26T00:35:14;101596.50;;;49.57;11.68
61086;BME280;46967;48.876;2.136;2023-06-26T00:37:39;101591.25;;;49.85;11.92
61086;BME280;46967;48.876;2.136;2023-06-26T00:40:05;101595.44;;;49.77;11.56
61086;BME280;46967;48.876;2.136;2023-06-26T00:42:30;101596.88;;;49.06;12.37
61086;BME280;46967;48.876;2.136;2023-06-26T00:44:56;101606.91;;;44.40;15.78
61086;BME280;46967;48.876;2.136;2023-06-26T00:47:21;101622.00;;;44.86;15.19
61086;BME280;46967;48.876;2.136;2023-06-26T00:49:46;101609.56;;;45.28;14.83
61086;BME280;46967;48.876;2.136;2023-06-26T00:52:12;101610.75;;;44.83;15.06
61086;BME280;46967;48.876;2.136;2023-06-26T00:54:37;101614.03;;;43.51;16.10
61086;BME280;46967;48.876;2.136;2023-06-26T00:57:03;101610.59;;;44.28;15.67
61086;BME280;46967;48.876;2.136;2023-06-26T00:59:29;101608.63;;;44.46;15.52
61086;BME280;46967;48.876;2.136;2023-06-26T01:01:54;101623.97;;;46.74;13.53
61086;BME280;46967;48.876;2.136;2023-06-26T01:04:19;101619.34;;;46.16;14.04
61086;BME280;46967;48.876;2.136;2023-06-26T01:06:48;101627.50;;;46.59;13.93
61086;BME280;46967;48.876;2.136;2023-06-26T01:09:18;101626.53;;;47.06;13.17
61086;BME280;46967;48.876;2.136;2023-06-26T01:11:44;101628.94;;;46.19;14.26
61086;BME280;46967;48.876;2.136;2023-06-26T01:14:10;101631.66;;;46.77;13.69
61086;BME280;46967;48.876;2.136;2023-06-26T01:16:35;101635.63;;;47.63;13.11
61086;BME280;46967;48.876;2.136;2023-06-26T01:19:01;101648.41;;;46.80;13.87
61086;BME280;46967;48.876;2.136;2023-06-26T01:21:27;101641.63;;;46.98;13.55
61086;BME280;46967;48.876;2.136;2023-06-26T01:26:33;101642.72;;;45.91;14.34
61086;BME280;46967;48.876;2.136;2023-06-26T01:29:04;101642.38;;;46.78;13.58
61086;BME280;46967;48.876;2.136;2023-06-26T01:31:31;101659.69;;;46.26;13.95
61086;BME280;46967;48.876;2.136;2023-06-26T01:33:59;101653.44;;;46.94;13.34
61086;BME280;46967;48.876;2.136;2023-06-26T01:36:24;101661.84;;;46.19;13.73
61086;BME280;46967;48.876;2.136;2023-06-26T01:38:50;101656.47;;;45.97;13.82
61086;BME280;46967;48.876;2.136;2023-06-26T01:41:17;101662.16;;;46.22;13.60
61086;BME280;46967;48.876;2.136;2023-06-26T01:44:05;101666.81;;;45.30;14.54
61086;BME280;46967;48.876;2.136;2023-06-26T01:46:39;101674.56;;;46.35;13.90
61086;BME280;46967;48.876;2.136;2023-06-26T01:49:20;101675.66;;;44.26;15.07
61086;BME280;46967;48.876;2.136;2023-06-26T01:51:55;101682.50;;;41.73;17.25
61086;BME280;46967;48.876;2.136;2023-06-26T01:54:23;101683.66;;;43.65;15.48
61086;BME280;46967;48.876;2.136;2023-06-26T01:56:52;101691.94;;;43.13;15.68
61086;BME280;46967;48.876;2.136;2023-06-26T01:59:20;73763.06;;;-146.28;15.68
61086;BME280;46967;48.876;2.136;2023-06-26T02:01:47;101683.50;;;43.72;15.30
61086;BME280;46967;48.876;2.136;2023-06-26T02:04:13;101688.63;;;45.42;13.69
61086;BME280;46967;48.876;2.136;2023-06-26T02:06:38;101688.50;;;42.41;16.34
61086;BME280;46967;48.876;2.136;2023-06-26T02:09:03;101693.28;;;45.19;14.02
61086;BME280;46967;48.876;2.136;2023-06-26T02:11:29;101693.84;;;45.43;13.98
61086;BME280;46967;48.876;2.136;2023-06-26T02:13:54;101689.13;;;45.71;13.53
61086;BME280;46967;48.876;2.136;2023-06-26T02:16:20;101693.16;;;46.28;13.28
61086;BME280;46967;48.876;2.136;2023-06-26T02:18:45;101692.84;;;45.54;13.55
61086;BME280;46967;48.876;2.136;2023-06-26T02:21:10;101687.94;;;46.79;12.85
61086;BME280;46967;48.876;2.136;2023-06-26T02:23:35;101699.25;;;46.40;12.87
61086;BME280;46967;48.876;2.136;2023-06-26T02:26:01;101700.84;;;45.34;13.87
61086;BME280;46967;48.876;2.136;2023-06-26T02:28:26;101702.69;;;46.20;13.30
61086;BME280;46967;48.876;2.136;2023-06-26T02:30:52;101701.97;;;46.88;13.11
61086;BME280;46967;48.876;2.136;2023-06-26T02:33:17;101701.03;;;47.35;12.22
61086;BME280;46967;48.876;2.136;2023-06-26T02:35:42;101710.91;;;46.58;13.29
61086;BME280;46967;48.876;2.136;2023-06-26T02:38:08;101717.00;;;46.75;12.80
61086;BME280;46967;48.876;2.136;2023-06-26T02:40:33;101715.94;;;45.64;13.81
61086;BME280;46967;48.876;2.136;2023-06-26T02:42:58;101716.38;;;46.58;12.99
61086;BME280;46967;48.876;2.136;2023-06-26T02:45:24;101723.25;;;47.29;12.38
61086;BME280;46967;48.876;2.136;2023-06-26T02:47:49;101721.28;;;47.09;12.53
61086;BME280;46967;48.876;2.136;2023-06-26T02:50:15;101722.69;;;43.49;15.74
61086;BME280;46967;48.876;2.136;2023-06-26T02:52:40;101720.00;;;45.88;13.53
61086;BME280;46967;48.876;2.136;2023-06-26T02:55:06;101720.03;;;45.93;13.72
61086;BME280;46967;48.876;2.136;2023-06-26T02:57:31;101723.53;;;46.16;13.52
61086;BME280;46967;48.876;2.136;2023-06-26T02:59:56;101728.41;;;46.14;13.61
61086;BME280;46967;48.876;2.136;2023-06-26T03:02:22;101723.31;;;46.28;13.21
61086;BME280;46967;48.876;2.136;2023-06-26T03:04:47;101728.66;;;46.50;13.22
61086;BME280;46967;48.876;2.136;2023-06-26T03:07:12;101732.16;;;46.88;12.99
61086;BME280;46967;48.876;2.136;2023-06-26T03:09:37;101735.38;;;45.62;13.85
61086;BME280;46967;48.876;2.136;2023-06-26T03:12:03;101734.38;;;45.73;13.83
61086;BME280;46967;48.876;2.136;2023-06-26T03:14:28;101744.94;;;45.87;13.90
61086;BME280;46967;48.876;2.136;2023-06-26T03:16:55;101751.28;;;45.38;14.04
61086;BME280;46967;48.876;2.136;2023-06-26T03:19:23;101743.97;;;46.41;13.52
61086;BME280;46967;48.876;2.136;2023-06-26T03:21:48;101744.44;;;46.70;13.22
61086;BME280;46967;48.876;2.136;2023-06-26T03:24:14;101749.00;;;47.02;12.68
61086;BME280;46967;48.876;2.136;2023-06-26T03:26:39;101745.53;;;46.74;13.26
61086;BME280;46967;48.876;2.136;2023-06-26T03:29:04;101749.25;;;46.95;12.78
61086;BME280;46967;48.876;2.136;2023-06-26T03:31:29;101745.94;;;46.93;12.96
61086;BME280;46967;48.876;2.136;2023-06-26T03:33:55;101745.19;;;46.55;13.17
61086;BME280;46967;48.876;2.136;2023-06-26T03:36:20;101756.78;;;46.30;13.52
61086;BME280;46967;48.876;2.136;2023-06-26T03:38:45;101756.47;;;45.89;13.76
61086;BME280;46967;48.876;2.136;2023-06-26T03:41:11;101757.84;;;46.67;13.28
61086;BME280;46967;48.876;2.136;2023-06-26T03:43:36;101770.78;;;46.71;13.26
61086;BME280;46967;48.876;2.136;2023-06-26T03:46:01;101766.91;;;46.24;13.34
61086;BME280;46967;48.876;2.136;2023-06-26T03:48:27;101766.00;;;46.51;12.86
61086;BME280;46967;48.876;2.136;2023-06-26T03:50:52;101770.22;;;46.64;13.12
61086;BME280;46967;48.876;2.136;2023-06-26T03:53:18;101774.41;;;46.39;13.36
61086;BME280;46967;48.876;2.136;2023-06-26T03:55:43;101779.72;;;46.51;13.19
61086;BME280;46967;48.876;2.136;2023-06-26T03:58:08;101777.06;;;46.24;13.39
61086;BME280;46967;48.876;2.136;2023-06-26T04:00:34;101786.59;;;46.16;13.47
61086;BME280;46967;48.876;2.136;2023-06-26T04:02:59;101785.94;;;46.09;13.52
61086;BME280;46967;48.876;2.136;2023-06-26T04:05:24;101789.91;;;46.18;13.39
61086;BME280;46967;48.876;2.136;2023-06-26T04:07:51;101805.97;;;45.77;13.90
61086;BME280;46967;48.876;2.136;2023-06-26T04:10:17;101803.00;;;45.84;13.58
61086;BME280;46967;48.876;2.136;2023-06-26T04:12:42;101807.88;;;46.09;13.75
61086;BME280;46967;48.876;2.136;2023-06-26T04:15:08;101801.94;;;46.17;13.57
61086;BME280;46967;48.876;2.136;2023-06-26T04:17:33;101808.31;;;45.68;13.86
61086;BME280;46967;48.876;2.136;2023-06-26T04:19:59;101815.78;;;46.00;13.74
61086;BME280;46967;48.876;2.136;2023-06-26T04:22:24;101817.03;;;45.87;13.60
61086;BME280;46967;48.876;2.136;2023-06-26T04:24:50;101809.31;;;45.13;14.34
61086;BME280;46967;48.876;2.136;2023-06-26T04:27:16;101811.44;;;45.33;14.40
61086;BME280;46967;48.876;2.136;2023-06-26T04:29:42;101814.66;;;45.25;14.32
61086;BME280;46967;48.876;2.136;2023-06-26T04:32:07;101816.34;;;44.70;14.65
61086;BME280;46967;48.876;2.136;2023-06-26T04:34:33;101820.81;;;45.15;14.21
61086;BME280;46967;48.876;2.136;2023-06-26T04:36:59;101815.44;;;45.42;14.24
61086;BME280;46967;48.876;2.136;2023-06-26T04:39:25;101819.88;;;45.26;14.24
61086;BME280;46967;48.876;2.136;2023-06-26T04:41:50;101813.69;;;45.36;14.36
61086;BME280;46967;48.876;2.136;2023-06-26T04:44:15;101825.88;;;45.72;13.78
61086;BME280;46967;48.876;2.136;2023-06-26T04:46:40;101824.31;;;45.32;14.22
61086;BME280;46967;48.876;2.136;2023-06-26T04:49:09;101835.09;;;45.61;14.01
61086;BME280;46967;48.876;2.136;2023-06-26T04:51:35;101829.50;;;45.51;13.93
61086;BME280;46967;48.876;2.136;2023-06-26T04:54:08;101828.38;;;45.74;13.96
61086;BME280;46967;48.876;2.136;2023-06-26T04:56:34;101830.50;;;44.83;14.61
61086;BME280;46967;48.876;2.136;2023-06-26T04:59:00;101831.31;;;44.16;15.00
61086;BME280;46967;48.876;2.136;2023-06-26T05:01:26;101829.13;;;44.64;14.88
61086;BME280;46967;48.876;2.136;2023-06-26T05:03:54;101835.16;;;44.03;15.29
61086;BME280;46967;48.876;2.136;2023-06-26T05:06:19;101833.50;;;44.65;14.82
61086;BME280;46967;48.876;2.136;2023-06-26T05:08:45;101832.69;;;44.30;15.20
61086;BME280;46967;48.876;2.136;2023-06-26T05:11:10;101837.19;;;45.10;14.45
61086;BME280;46967;48.876;2.136;2023-06-26T05:13:35;101851.44;;;44.10;15.16
61086;BME280;46967;48.876;2.136;2023-06-26T05:16:01;101839.09;;;45.09;14.27
61086;BME280;46967;48.876;2.136;2023-06-26T05:18:26;101846.38;;;44.64;14.55
61086;BME280;46967;48.876;2.136;2023-06-26T05:20:52;101847.78;;;44.67;14.64
61086;BME280;46967;48.876;2.136;2023-06-26T05:23:17;101857.38;;;44.36;15.10
61086;BME280;46967;48.876;2.136;2023-06-26T05:25:43;101854.88;;;45.02;14.67
61086;BME280;46967;48.876;2.136;2023-06-26T05:28:09;101851.03;;;42.30;16.43
61086;BME280;46967;48.876;2.136;2023-06-26T05:30:38;101857.56;;;44.17;15.29
61086;BME280;46967;48.876;2.136;2023-06-26T05:33:04;101864.56;;;43.96;15.24
61086;BME280;46967;48.876;2.136;2023-06-26T05:35:31;101858.03;;;44.43;14.91
61086;BME280;46967;48.876;2.136;2023-06-26T05:37:58;101862.03;;;42.89;16.18
61086;BME280;46967;48.876;2.136;2023-06-26T05:40:23;101858.91;;;43.45;15.68
61086;BME280;46967;48.876;2.136;2023-06-26T05:42:49;101858.50;;;41.37;17.73
61086;BME280;46967;48.876;2.136;2023-06-26T05:45:15;101858.59;;;43.18;15.91
61086;BME280;46967;48.876;2.136;2023-06-26T05:47:41;101866.44;;;43.78;15.51
61086;BME280;46967;48.876;2.136;2023-06-26T05:50:07;101866.63;;;42.23;16.87
61086;BME280;46967;48.876;2.136;2023-06-26T05:52:33;101872.25;;;42.40;16.70
61086;BME280;46967;48.876;2.136;2023-06-26T05:54:59;101867.78;;;41.85;17.16
61086;BME280;46967;48.876;2.136;2023-06-26T05:57:27;101874.03;;;43.76;15.38
61086;BME280;46967;48.876;2.136;2023-06-26T05:59:53;101868.19;;;43.73;15.41
61086;BME280;46967;48.876;2.136;2023-06-26T06:02:18;101878.75;;;43.40;15.66
61086;BME280;46967;48.876;2.136;2023-06-26T06:04:44;101873.97;;;44.17;15.08
61086;BME280;46967;48.876;2.136;2023-06-26T06:07:09;101872.06;;;43.36;15.74
61086;BME280;46967;48.876;2.136;2023-06-26T06:09:34;101866.44;;;43.78;15.26
61086;BME280;46967;48.876;2.136;2023-06-26T06:12:00;101865.66;;;44.92;14.42
61086;BME280;46967;48.876;2.136;2023-06-26T06:14:27;101871.50;;;44.61;14.50
61086;BME280;46967;48.876;2.136;2023-06-26T06:16:53;101870.19;;;45.86;13.32
61086;BME280;46967;48.876;2.136;2023-06-26T06:19:18;101874.09;;;45.46;13.81
61086;BME280;46967;48.876;2.136;2023-06-26T06:21:43;101874.09;;;45.68;13.61
61086;BME280;46967;48.876;2.136;2023-06-26T06:24:09;101884.00;;;45.52;13.81
61086;BME280;46967;48.876;2.136;2023-06-26T06:26:35;101885.91;;;45.30;14.04
61086;BME280;46967;48.876;2.136;2023-06-26T06:29:00;101904.56;;;43.73;15.22
61086;BME280;46967;48.876;2.136;2023-06-26T06:31:25;101907.06;;;44.78;14.04
61086;BME280;46967;48.876;2.136;2023-06-26T06:33:54;101916.66;;;43.89;15.10
61086;BME280;46967;48.876;2.136;2023-06-26T06:36:19;101918.53;;;45.14;14.31
61086;BME280;46967;48.876;2.136;2023-06-26T06:38:45;101917.44;;;43.37;15.74
61086;BME280;46967;48.876;2.136;2023-06-26T06:41:10;101921.81;;;44.31;14.87
61086;BME280;46967;48.876;2.136;2023-06-26T06:43:36;101917.13;;;45.29;13.87
61086;BME280;46967;48.876;2.136;2023-06-26T06:46:02;101920.66;;;45.07;14.21
61086;BME280;46967;48.876;2.136;2023-06-26T06:48:27;101917.41;;;44.93;14.12
61086;BME280;46967;48.876;2.136;2023-06-26T06:50:52;101923.69;;;45.89;13.31
61086;BME280;46967;48.876;2.136;2023-06-26T06:53:18;101920.44;;;43.88;14.49
61086;BME280;46967;48.876;2.136;2023-06-26T06:55:45;101914.97;;;43.24;15.71
61086;BME280;46967;48.876;2.136;2023-06-26T06:58:11;101914.34;;;43.98;14.72
61086;BME280;46967;48.876;2.136;2023-06-26T07:00:36;101916.75;;;43.94;15.09
61086;BME280;46967;48.876;2.136;2023-06-26T07:03:02;101913.09;;;44.18;14.79
61086;BME280;46967;48.876;2.136;2023-06-26T07:05:27;101907.19;;;42.31;16.12
61086;BME280;46967;48.876;2.136;2023-06-26T07:07:53;101909.88;;;41.71;16.67
61086;BME280;46967;48.876;2.136;2023-06-26T07:10:18;101911.38;;;42.46;15.88
61086;BME280;46967;48.876;2.136;2023-06-26T07:12:43;101911.63;;;43.46;15.31
61086;BME280;46967;48.876;2.136;2023-06-26T07:15:10;101906.59;;;44.07;14.77
61086;BME280;46967;48.876;2.136;2023-06-26T07:17:35;101911.94;;;45.49;13.63
61086;BME280;46967;48.876;2.136;2023-06-26T07:20:03;101910.72;;;45.62;13.45
61086;BME280;46967;48.876;2.136;2023-06-26T07:22:33;101918.06;;;45.79;13.40
61086;BME280;46967;48.876;2.136;2023-06-26T07:24:58;101926.56;;;45.60;13.60
61086;BME280;46967;48.876;2.136;2023-06-26T07:27:23;101926.19;;;44.95;13.75
61086;BME280;46967;48.876;2.136;2023-06-26T07:29:49;101927.63;;;43.30;15.18
61086;BME280;46967;48.876;2.136;2023-06-26T07:32:14;101934.88;;;43.60;15.17
61086;BME280;46967;48.876;2.136;2023-06-26T07:34:40;101923.91;;;44.12;14.36
61086;BME280;46967;48.876;2.136;2023-06-26T07:37:05;101927.47;;;45.44;13.54
61086;BME280;46967;48.876;2.136;2023-06-26T07:39:30;101935.13;;;45.42;13.72
61086;BME280;46967;48.876;2.136;2023-06-26T07:41:56;101940.44;;;44.18;14.36
61086;BME280;46967;48.876;2.136;2023-06-26T07:44:23;101946.53;;;44.65;13.95
61086;BME280;46967;48.876;2.136;2023-06-26T07:46:48;101939.22;;;44.25;13.90
61086;BME280;46967;48.876;2.136;2023-06-26T07:49:14;101942.38;;;45.75;12.64
61086;BME280;46967;48.876;2.136;2023-06-26T07:51:39;101951.75;;;45.57;13.03
61086;BME280;46967;48.876;2.136;2023-06-26T07:54:05;101940.97;;;46.17;12.79
61086;BME280;46967;48.876;2.136;2023-06-26T07:56:30;101942.75;;;47.30;12.08
61086;BME280;46967;48.876;2.136;2023-06-26T07:58:55;101941.47;;;47.06;11.89
61086;BME280;46967;48.876;2.136;2023-06-26T08:01:23;101946.69;;;46.42;12.61
61086;BME280;46967;48.876;2.136;2023-06-26T08:03:49;101944.16;;;46.63;12.12
61086;BME280;46967;48.876;2.136;2023-06-26T08:06:14;101961.53;;;44.80;13.55
61086;BME280;46967;48.876;2.136;2023-06-26T08:08:39;101963.19;;;44.98;13.15
61086;BME280;46967;48.876;2.136;2023-06-26T08:11:05;101968.38;;;43.67;14.21
61086;BME280;46967;48.876;2.136;2023-06-26T08:13:30;101959.72;;;43.47;13.84
61086;BME280;46967;48.876;2.136;2023-06-26T08:15:56;101951.88;;;46.39;12.23
61086;BME280;46967;48.876;2.136;2023-06-26T08:18:21;101959.97;;;45.01;12.51
61086;BME280;46967;48.876;2.136;2023-06-26T08:20:46;101958.22;;;47.47;10.79
61086;BME280;46967;48.876;2.136;2023-06-26T08:23:12;101964.06;;;47.66;11.31
61086;BME280;46967;48.876;2.136;2023-06-26T08:25:37;101954.69;;;47.09;11.07
61086;BME280;46967;48.876;2.136;2023-06-26T08:28:02;101956.09;;;46.79;11.69
61086;BME280;46967;48.876;2.136;2023-06-26T08:30:28;101954.25;;;47.27;11.00
61086;BME280;46967;48.876;2.136;2023-06-26T08:32:55;101952.94;;;46.65;11.71
61086;BME280;46967;48.876;2.136;2023-06-26T08:35:20;101951.94;;;46.17;12.14
61086;BME280;46967;48.876;2.136;2023-06-26T08:37:45;101953.75;;;46.93;10.98
61086;BME280;46967;48.876;2.136;2023-06-26T08:40:12;101952.31;;;47.28;10.67
61086;BME280;46967;48.876;2.136;2023-06-26T08:42:38;101956.69;;;45.77;12.29
61086;BME280;46967;48.876;2.136;2023-06-26T08:45:03;101952.09;;;46.59;11.46
61086;BME280;46967;48.876;2.136;2023-06-26T08:47:30;101951.63;;;48.37;10.45
61086;BME280;46967;48.876;2.136;2023-06-26T08:50:08;101952.97;;;47.45;10.91
61086;BME280;46967;48.876;2.136;2023-06-26T08:53:40;101954.78;;;46.87;10.97
61086;BME280;46967;48.876;2.136;2023-06-26T08:55:43;101956.00;;;47.49;10.24
61086;BME280;46967;48.876;2.136;2023-06-26T08:58:09;101950.81;;;45.46;11.49
61086;BME280;46967;48.876;2.136;2023-06-26T09:00:34;101954.03;;;47.34;10.30
61086;BME280;46967;48.876;2.136;2023-06-26T09:03:01;101953.63;;;46.50;10.42
61086;BME280;46967;48.876;2.136;2023-06-26T09:05:28;101948.13;;;46.77;10.72
61086;BME280;46967;48.876;2.136;2023-06-26T09:07:53;101954.75;;;44.54;11.91
61086;BME280;46967;48.876;2.136;2023-06-26T09:10:21;101956.66;;;46.81;10.65
61086;BME280;46967;48.876;2.136;2023-06-26T09:12:47;101958.59;;;47.18;10.53
61086;BME280;46967;48.876;2.136;2023-06-26T09:15:14;101973.34;;;43.11;11.76
61086;BME280;46967;48.876;2.136;2023-06-26T09:17:40;101954.81;;;45.61;10.40
61086;BME280;46967;48.876;2.136;2023-06-26T09:20:07;101959.19;;;46.06;10.35
61086;BME280;46967;48.876;2.136;2023-06-26T09:22:35;101942.09;;;46.48;9.86
61086;BME280;46967;48.876;2.136;2023-06-26T09:25:02;101950.50;;;47.44;9.08
61086;BME280;46967;48.876;2.136;2023-06-26T09:27:28;101945.44;;;47.78;9.76
61086;BME280;46967;48.876;2.136;2023-06-26T09:29:53;101944.78;;;44.59;11.02
61086;BME280;46967;48.876;2.136;2023-06-26T09:32:24;101948.47;;;46.54;9.78
61086;BME280;46967;48.876;2.136;2023-06-26T09:34:52;101954.84;;;46.59;9.99
61086;BME280;46967;48.876;2.136;2023-06-26T09:37:18;101952.44;;;46.14;9.95
61086;BME280;46967;48.876;2.136;2023-06-26T09:39:44;101938.16;;;48.35;8.93
61086;BME280;46967;48.876;2.136;2023-06-26T09:42:09;101943.09;;;48.69;9.00
61086;BME280;46967;48.876;2.136;2023-06-26T09:44:35;101945.25;;;47.32;9.94
61086;BME280;46967;48.876;2.136;2023-06-26T09:47:01;101950.53;;;48.58;9.15
61086;BME280;46967;48.876;2.136;2023-06-26T09:49:29;101954.78;;;47.24;9.64
61086;BME280;46967;48.876;2.136;2023-06-26T09:51:54;101957.31;;;47.31;9.45
61086;BME280;46967;48.876;2.136;2023-06-26T09:54:21;101961.44;;;45.65;11.01
61086;BME280;46967;48.876;2.136;2023-06-26T09:56:47;101963.34;;;45.25;11.53
61086;BME280;46967;48.876;2.136;2023-06-26T09:59:13;101969.00;;;46.78;10.22
61086;BME280;46967;48.876;2.136;2023-06-26T10:01:45;101973.34;;;47.49;10.25
61086;BME280;46967;48.876;2.136;2023-06-26T10:04:10;101976.78;;;46.92;10.18
61086;BME280;46967;48.876;2.136;2023-06-26T10:06:41;101976.28;;;46.35;10.48
61086;BME280;46967;48.876;2.136;2023-06-26T10:09:06;101975.63;;;45.39;11.13
61086;BME280;46967;48.876;2.136;2023-06-26T10:11:43;101969.84;;;47.16;9.89
61086;BME280;46967;48.876;2.136;2023-06-26T10:14:11;101964.84;;;48.66;8.96
61086;BME280;46967;48.876;2.136;2023-06-26T10:16:39;101967.81;;;45.70;10.19
61086;BME280;46967;48.876;2.136;2023-06-26T10:19:08;101964.94;;;45.60;10.06
61086;BME280;46967;48.876;2.136;2023-06-26T10:21:37;101974.06;;;46.32;9.95
61086;BME280;46967;48.876;2.136;2023-06-26T10:24:05;101976.34;;;48.21;9.22
61086;BME280;46967;48.876;2.136;2023-06-26T10:26:35;101978.09;;;48.84;8.89
61086;BME280;46967;48.876;2.136;2023-06-26T10:29:03;101972.19;;;49.37;8.02
61086;BME280;46967;48.876;2.136;2023-06-26T10:31:29;101979.09;;;46.73;9.10
61086;BME280;46967;48.876;2.136;2023-06-26T10:33:55;101980.59;;;45.43;9.85
61086;BME280;46967;48.876;2.136;2023-06-26T10:36:28;101983.44;;;45.14;10.33
61086;BME280;46967;48.876;2.136;2023-06-26T10:38:58;101975.91;;;46.26;8.45
61086;BME280;46967;48.876;2.136;2023-06-26T10:41:25;101976.50;;;44.31;9.88
61086;BME280;46967;48.876;2.136;2023-06-26T10:44:09;101961.94;;;47.73;8.24
61086;BME280;46967;48.876;2.136;2023-06-26T10:46:51;101965.66;;;44.08;10.70
61086;BME280;46967;48.876;2.136;2023-06-26T10:49:20;101972.81;;;46.77;9.04
61086;BME280;46967;48.876;2.136;2023-06-26T10:51:51;101963.47;;;49.14;7.89
61086;BME280;46967;48.876;2.136;2023-06-26T10:54:18;101969.47;;;49.32;8.03
61086;BME280;46967;48.876;2.136;2023-06-26T10:59:17;101982.88;;;43.80;10.29
61086;BME280;46967;48.876;2.136;2023-06-26T11:01:45;101974.59;;;45.85;8.88
61086;BME280;46967;48.876;2.136;2023-06-26T11:04:13;101968.44;;;46.49;8.52
61086;BME280;46967;48.876;2.136;2023-06-26T11:06:40;101966.47;;;47.52;8.40
61086;BME280;46967;48.876;2.136;2023-06-26T11:09:10;101972.75;;;47.42;8.57
61086;BME280;46967;48.876;2.136;2023-06-26T11:14:21;101964.53;;;47.05;9.21
61086;BME280;46967;48.876;2.136;2023-06-26T11:16:47;101951.38;;;48.43;8.41
61086;BME280;46967;48.876;2.136;2023-06-26T11:19:16;101968.16;;;47.15;8.87
61086;BME280;46967;48.876;2.136;2023-06-26T11:21:41;101977.44;;;45.34;9.69
61086;BME280;46967;48.876;2.136;2023-06-26T11:24:07;101966.97;;;47.39;8.99
61086;BME280;46967;48.876;2.136;2023-06-26T11:26:39;101971.44;;;48.34;8.17
61086;BME280;46967;48.876;2.136;2023-06-26T11:29:05;101975.09;;;47.28;9.25
61086;BME280;46967;48.876;2.136;2023-06-26T11:31:34;101970.91;;;44.38;10.99
61086;BME280;46967;48.876;2.136;2023-06-26T11:34:02;101969.25;;;47.57;8.94
61086;BME280;46967;48.876;2.136;2023-06-26T11:36:29;101970.94;;;48.57;7.76
61086;BME280;46967;48.876;2.136;2023-06-26T11:39:00;101971.69;;;48.22;7.95
61086;BME280;46967;48.876;2.136;2023-06-26T11:41:37;101971.84;;;46.07;9.22
61086;BME280;46967;48.876;2.136;2023-06-26T11:44:04;101979.31;;;47.99;8.64
61086;BME280;46967;48.876;2.136;2023-06-26T11:46:30;101981.88;;;47.58;8.71
61086;BME280;46967;48.876;2.136;2023-06-26T11:48:56;101991.38;;;47.88;8.61
61086;BME280;46967;48.876;2.136;2023-06-26T11:51:22;101994.31;;;48.75;7.95
61086;BME280;46967;48.876;2.136;2023-06-26T11:53:48;101984.50;;;45.30;10.17
61086;BME280;46967;48.876;2.136;2023-06-26T11:56:15;101978.63;;;49.02;8.32
61086;BME280;46967;48.876;2.136;2023-06-26T11:59:05;101983.78;;;46.77;8.42
61086;BME280;46967;48.876;2.136;2023-06-26T12:01:42;101975.53;;;48.31;7.94
61086;BME280;46967;48.876;2.136;2023-06-26T12:04:11;101975.72;;;50.53;6.57
61086;BME280;46967;48.876;2.136;2023-06-26T12:06:38;101974.53;;;50.64;6.37
61086;BME280;46967;48.876;2.136;2023-06-26T12:09:06;101969.41;;;51.11;6.22
61086;BME280;46967;48.876;2.136;2023-06-26T12:11:34;101969.72;;;49.51;7.06
61086;BME280;46967;48.876;2.136;2023-06-26T12:14:00;101962.63;;;50.34;6.63
61086;BME280;46967;48.876;2.136;2023-06-26T12:16:28;101972.38;;;46.91;8.51
61086;BME280;46967;48.876;2.136;2023-06-26T12:19:01;101973.28;;;45.48;9.65
61086;BME280;46967;48.876;2.136;2023-06-26T12:24:08;101962.38;;;48.90;7.89
61086;BME280;46967;48.876;2.136;2023-06-26T12:26:34;101961.56;;;50.65;6.63
61086;BME280;46967;48.876;2.136;2023-06-26T12:29:06;101976.91;;;49.26;7.10
61086;BME280;46967;48.876;2.136;2023-06-26T12:31:31;101985.28;;;47.28;8.57
61086;BME280;46967;48.876;2.136;2023-06-26T12:33:57;101963.00;;;49.67;7.43
61086;BME280;46967;48.876;2.136;2023-06-26T12:36:23;101959.97;;;50.53;6.51
61086;BME280;46967;48.876;2.136;2023-06-26T12:38:49;101961.69;;;47.85;7.92
61086;BME280;46967;48.876;2.136;2023-06-26T12:41:15;101955.91;;;46.58;8.30
61086;BME280;46967;48.876;2.136;2023-06-26T12:43:41;101956.97;;;45.58;9.27
61086;BME280;46967;48.876;2.136;2023-06-26T12:46:07;101963.53;;;44.84;9.42
61086;BME280;46967;48.876;2.136;2023-06-26T12:48:37;101962.75;;;47.84;8.62
61086;BME280;46967;48.876;2.136;2023-06-26T12:51:16;101954.19;;;49.65;7.34
61086;BME280;46967;48.876;2.136;2023-06-26T12:53:42;101964.16;;;47.92;8.28
61086;BME280;46967;48.876;2.136;2023-06-26T12:56:09;101963.47;;;45.74;9.39
61086;BME280;46967;48.876;2.136;2023-06-26T12:58:35;101959.34;;;49.02;6.99
61086;BME280;46967;48.876;2.136;2023-06-26T13:01:06;101962.81;;;46.34;8.43